Time;durP1;ratioP1;P1;durP2;ratioP2;P2;SDS_P1;SDS_P2;PMS_P1;PMS_P2;Temp;Humidity;BMP_temperature;BMP_pressure;BME280_temperature;BME280_humidity;BME280_pressure;Samples;Min_cycle;Max_cycle;Signal;HPM_P1;HPM_P2
2023/12/07 00:01:23;;;;;;;16.13;15.53;;;3.10;99.90;;;;;;5076627;28;20207;-67
2023/12/07 00:03:50;;;;;;;16.70;16.00;;;3.10;99.90;;;;;;5076767;28;20218;-67
2023/12/07 00:06:17;;;;;;;17.53;16.83;;;3.10;99.90;;;;;;5074427;28;20239;-66
2023/12/07 00:08:43;;;;;;;18.27;17.47;;;3.10;99.90;;;;;;5071804;28;20210;-66
2023/12/07 00:11:11;;;;;;;17.30;16.60;;;3.10;99.90;;;;;;5073372;28;20207;-66
2023/12/07 00:13:38;;;;;;;17.10;16.40;;;3.00;99.90;;;;;;5072660;28;20717;-66
2023/12/07 00:16:05;;;;;;;16.77;16.07;;;3.00;99.90;;;;;;5072671;28;20227;-68
2023/12/07 00:18:32;;;;;;;16.90;16.20;;;2.90;99.90;;;;;;5071847;28;20218;-66
2023/12/07 00:20:59;;;;;;;16.53;15.93;;;2.90;99.90;;;;;;5072102;28;20207;-70
2023/12/07 00:23:25;;;;;;;18.00;17.30;;;2.90;99.90;;;;;;5071345;28;20225;-68
2023/12/07 00:25:52;;;;;;;16.03;15.43;;;2.80;99.90;;;;;;5071240;28;20620;-67
2023/12/07 00:28:20;;;;;;;16.90;16.20;;;2.80;99.90;;;;;;5071607;28;20210;-68
2023/12/07 00:30:47;;;;;;;17.50;16.80;;;2.80;99.90;;;;;;5070716;28;20211;-67
2023/12/07 00:33:14;;;;;;;16.87;16.20;;;2.80;99.90;;;;;;5073901;28;20586;-65
2023/12/07 00:35:40;;;;;;;16.23;15.63;;;2.80;99.90;;;;;;5072747;28;20227;-69
2023/12/07 00:38:08;;;;;;;16.47;15.77;;;2.80;99.90;;;;;;5070814;28;20203;-69
2023/12/07 00:40:36;;;;;;;16.47;15.87;;;2.80;99.90;;;;;;5070467;28;20352;-68
2023/12/07 00:43:03;;;;;;;16.60;15.93;;;2.70;99.90;;;;;;5070581;28;20207;-66
2023/12/07 00:45:31;;;;;;;16.53;15.83;;;2.70;99.90;;;;;;5070996;28;20547;-67
2023/12/07 00:47:58;;;;;;;17.80;17.10;;;2.70;99.90;;;;;;5071123;28;20211;-67
2023/12/07 00:50:25;;;;;;;18.67;17.97;;;2.70;99.90;;;;;;5070497;28;20583;-67
2023/12/07 00:52:51;;;;;;;17.30;16.60;;;2.70;99.90;;;;;;5070465;28;20231;-69
2023/12/07 00:55:18;;;;;;;17.43;16.73;;;2.70;99.90;;;;;;5070418;28;20218;-66
2023/12/07 00:57:45;;;;;;;16.47;15.87;;;2.70;99.90;;;;;;5070246;28;20670;-67
2023/12/07 01:00:13;;;;;;;17.37;16.67;;;2.70;99.90;;;;;;5070930;28;20583;-68
2023/12/07 01:02:41;;;;;;;17.27;16.57;;;2.70;99.90;;;;;;5070956;28;20231;-68
2023/12/07 01:05:08;;;;;;;17.97;17.27;;;2.70;99.90;;;;;;5070722;28;20215;-67
2023/12/07 01:07:35;;;;;;;19.17;18.40;;;2.50;99.90;;;;;;5070370;28;20214;-67
2023/12/07 01:10:02;;;;;;;18.37;17.57;;;2.70;99.90;;;;;;5070774;28;20294;-68
2023/12/07 01:12:28;;;;;;;17.23;16.53;;;2.80;99.90;;;;;;5070996;28;20649;-68
2023/12/07 01:14:55;;;;;;;18.23;17.53;;;2.80;99.90;;;;;;5071086;28;20211;-67
2023/12/07 01:17:22;;;;;;;15.63;15.03;;;2.90;99.90;;;;;;5070582;28;20231;-69
2023/12/07 01:19:50;;;;;;;15.97;15.37;;;2.90;99.90;;;;;;5071443;28;20207;-65
2023/12/07 01:22:16;;;;;;;16.70;16.03;;;2.90;99.90;;;;;;5072923;28;20218;-66
2023/12/07 01:24:43;;;;;;;16.57;15.87;;;3.00;99.90;;;;;;5072948;28;20211;-68
2023/12/07 01:27:10;;;;;;;16.00;15.40;;;3.00;99.90;;;;;;5071087;28;20254;-67
2023/12/07 01:29:37;;;;;;;15.67;15.03;;;3.00;99.90;;;;;;5071422;28;20212;-66
2023/12/07 01:32:04;;;;;;;14.70;14.20;;;2.90;99.90;;;;;;5073799;28;20743;-68
2023/12/07 01:34:32;;;;;;;15.60;15.00;;;2.80;99.90;;;;;;5074042;28;20215;-67
2023/12/07 01:37:00;;;;;;;17.67;16.87;;;2.90;99.90;;;;;;5073976;28;20598;-68
2023/12/07 01:39:27;;;;;;;17.23;16.53;;;2.80;99.90;;;;;;5073674;28;20207;-68
2023/12/07 01:41:54;;;;;;;17.37;16.67;;;2.80;99.90;;;;;;5073923;28;20207;-67
2023/12/07 01:44:20;;;;;;;17.37;16.67;;;2.70;99.90;;;;;;5073914;28;20214;-68
2023/12/07 01:46:47;;;;;;;16.60;15.90;;;2.70;99.90;;;;;;5073661;28;20710;-66
2023/12/07 01:49:14;;;;;;;16.77;16.07;;;2.60;99.90;;;;;;5073775;28;20682;-68
2023/12/07 01:51:41;;;;;;;15.50;14.90;;;2.50;99.90;;;;;;5073602;28;20223;-69
2023/12/07 01:54:09;;;;;;;17.20;16.50;;;2.50;99.90;;;;;;5073678;28;20215;-67
2023/12/07 01:56:36;;;;;;;15.60;15.00;;;2.40;99.90;;;;;;5073326;28;20722;-68
2023/12/07 01:59:03;;;;;;;16.87;16.17;;;2.40;99.90;;;;;;5073346;28;20207;-68
2023/12/07 02:01:30;;;;;;;16.57;15.93;;;2.30;99.90;;;;;;5073469;28;20634;-66
2023/12/07 02:03:56;;;;;;;16.70;16.03;;;2.30;99.90;;;;;;5073212;28;20206;-67
2023/12/07 02:06:23;;;;;;;16.20;15.60;;;2.30;99.90;;;;;;5073008;28;20242;-67
2023/12/07 02:08:50;;;;;;;17.80;17.10;;;2.30;99.90;;;;;;5072858;28;20222;-68
2023/12/07 02:11:18;;;;;;;15.67;15.07;;;2.30;99.90;;;;;;5073516;28;20219;-67
2023/12/07 02:13:45;;;;;;;15.97;15.33;;;2.30;99.90;;;;;;5073951;28;20654;-69
2023/12/07 02:16:26;;;;;;;15.80;15.17;;;2.20;99.90;;;;;;5075012;28;20230;-67
2023/12/07 02:19:02;;;;;;;17.37;16.57;;;2.20;99.90;;;;;;5077394;28;20219;-68
2023/12/07 02:21:34;;;;;;;15.47;14.87;;;2.20;99.90;;;;;;5074389;28;20317;-67
2023/12/07 02:24:03;;;;;;;15.67;15.07;;;2.20;99.90;;;;;;5073686;28;20203;-68
2023/12/07 02:26:33;;;;;;;15.63;15.03;;;2.20;99.90;;;;;;5072882;28;20748;-65
2023/12/07 02:28:59;;;;;;;15.97;15.37;;;2.10;99.90;;;;;;5072464;28;20214;-68
2023/12/07 02:31:26;;;;;;;16.80;16.10;;;2.10;99.90;;;;;;5072560;28;20619;-67
2023/12/07 02:33:53;;;;;;;16.27;15.67;;;2.10;99.90;;;;;;5072958;28;20227;-68
2023/12/07 02:36:22;;;;;;;16.10;15.50;;;2.10;99.90;;;;;;5073101;28;20235;-69
2023/12/07 02:38:51;;;;;;;17.13;16.43;;;2.10;99.90;;;;;;5073348;28;20211;-68
2023/12/07 02:41:19;;;;;;;15.87;15.27;;;2.10;99.90;;;;;;5074121;28;20719;-69
2023/12/07 02:43:48;;;;;;;16.13;15.53;;;2.10;99.90;;;;;;5073607;28;20210;-68
2023/12/07 02:46:15;;;;;;;16.07;15.47;;;2.10;99.90;;;;;;5074097;28;20749;-68
2023/12/07 02:48:41;;;;;;;17.30;16.50;;;2.00;99.90;;;;;;5074777;28;20230;-67
2023/12/07 02:51:08;;;;;;;15.20;14.60;;;2.00;99.90;;;;;;5074074;28;20204;-68
2023/12/07 02:53:35;;;;;;;16.70;16.00;;;2.00;99.90;;;;;;5074421;28;20231;-66
2023/12/07 02:56:02;;;;;;;15.97;15.27;;;1.90;99.90;;;;;;5073585;28;20637;-68
2023/12/07 02:58:28;;;;;;;16.13;15.53;;;1.90;99.90;;;;;;5072673;28;20211;-65
2023/12/07 03:00:56;;;;;;;15.93;15.33;;;1.90;99.90;;;;;;5072803;28;20584;-68
2023/12/07 03:03:23;;;;;;;17.23;16.53;;;1.90;99.90;;;;;;5068436;28;20211;-68
2023/12/07 03:05:50;;;;;;;16.27;15.67;;;1.90;99.90;;;;;;5068121;28;20227;-67
2023/12/07 03:08:16;;;;;;;16.00;15.40;;;1.90;99.90;;;;;;5071938;28;20211;-69
2023/12/07 03:10:43;;;;;;;16.03;15.43;;;1.90;99.90;;;;;;5072332;28;20207;-67
2023/12/07 03:13:10;;;;;;;15.20;14.60;;;1.80;99.90;;;;;;5072137;28;20238;-69
2023/12/07 03:15:36;;;;;;;14.87;14.27;;;1.80;99.90;;;;;;5072122;28;20223;-68
2023/12/07 03:18:05;;;;;;;15.13;14.53;;;1.80;99.90;;;;;;5072520;28;20211;-67
2023/12/07 03:20:32;;;;;;;13.90;13.30;;;1.70;99.90;;;;;;5071578;28;20211;-68
2023/12/07 03:22:58;;;;;;;14.67;14.07;;;1.70;99.90;;;;;;5071411;28;20210;-67
2023/12/07 03:25:26;;;;;;;14.83;14.23;;;1.70;99.90;;;;;;5071626;28;20238;-68
2023/12/07 03:27:52;;;;;;;15.33;14.73;;;1.60;99.90;;;;;;5071832;28;20210;-68
2023/12/07 03:30:19;;;;;;;15.30;14.70;;;1.70;99.90;;;;;;5071431;28;20214;-70
2023/12/07 03:32:46;;;;;;;15.30;14.70;;;1.70;99.90;;;;;;5071189;28;20203;-67
2023/12/07 03:35:14;;;;;;;15.03;14.43;;;1.70;99.90;;;;;;5071086;28;20214;-67
2023/12/07 03:37:40;;;;;;;15.70;15.10;;;1.70;99.90;;;;;;5071214;28;20207;-69
2023/12/07 03:40:09;;;;;;;13.83;13.33;;;1.70;99.90;;;;;;5071478;28;20218;-69
2023/12/07 03:42:35;;;;;;;14.37;13.77;;;1.60;99.90;;;;;;5071681;28;20215;-66
2023/12/07 03:45:02;;;;;;;14.43;13.83;;;1.50;99.90;;;;;;5071389;28;20219;-67
2023/12/07 03:47:29;;;;;;;14.63;14.03;;;1.50;99.90;;;;;;5071419;28;20709;-69
2023/12/07 03:49:56;;;;;;;15.47;14.83;;;1.40;99.90;;;;;;5071105;28;20226;-66
2023/12/07 03:52:24;;;;;;;13.97;13.37;;;1.40;99.90;;;;;;5070838;28;20215;-68
2023/12/07 03:54:50;;;;;;;13.67;13.17;;;1.40;99.90;;;;;;5071557;28;20234;-67
2023/12/07 03:57:17;;;;;;;14.47;13.87;;;1.40;99.90;;;;;;5071524;28;20234;-69
2023/12/07 03:59:45;;;;;;;13.73;13.20;;;1.40;99.90;;;;;;5078148;28;20222;-66
2023/12/07 04:02:12;;;;;;;14.27;13.70;;;1.40;99.90;;;;;;5081669;28;20236;-67
2023/12/07 04:04:39;;;;;;;15.27;14.67;;;1.50;99.90;;;;;;5073563;28;20203;-67
2023/12/07 04:07:06;;;;;;;13.97;13.37;;;1.50;99.90;;;;;;5076318;28;20261;-66
2023/12/07 04:09:34;;;;;;;14.57;13.97;;;1.50;99.90;;;;;;5073111;28;20207;-68
2023/12/07 04:12:00;;;;;;;14.60;13.97;;;1.50;99.90;;;;;;5079196;28;20207;-68
2023/12/07 04:14:27;;;;;;;15.30;14.70;;;1.50;99.90;;;;;;5072146;28;20298;-68
2023/12/07 04:16:54;;;;;;;15.50;14.87;;;1.60;99.90;;;;;;5072303;28;20227;-64
2023/12/07 04:19:21;;;;;;;14.60;14.03;;;1.60;99.90;;;;;;5071178;28;20207;-69
2023/12/07 04:21:47;;;;;;;14.43;13.83;;;1.60;99.90;;;;;;5071852;28;20273;-69
2023/12/07 04:24:14;;;;;;;13.90;13.40;;;1.60;99.90;;;;;;5068897;28;20216;-66
2023/12/07 04:26:42;;;;;;;14.13;13.53;;;1.50;99.90;;;;;;5066932;28;20234;-69
2023/12/07 04:29:09;;;;;;;14.20;13.67;;;1.50;99.90;;;;;;5071525;28;20218;-69
2023/12/07 04:31:36;;;;;;;13.57;13.07;;;1.50;99.90;;;;;;5071720;28;20207;-68
2023/12/07 04:34:03;;;;;;;13.90;13.30;;;1.50;99.90;;;;;;5071311;28;20230;-68
2023/12/07 04:36:29;;;;;;;13.73;13.20;;;1.40;99.90;;;;;;5071405;28;20571;-67
2023/12/07 04:38:56;;;;;;;13.40;12.80;;;1.40;99.90;;;;;;5070941;28;20211;-68
2023/12/07 04:41:23;;;;;;;14.17;13.57;;;1.40;99.90;;;;;;5071275;28;20214;-67
2023/12/07 04:43:51;;;;;;;13.30;12.80;;;1.30;99.90;;;;;;5070897;28;20589;-68
2023/12/07 04:46:17;;;;;;;13.57;13.07;;;1.30;99.90;;;;;;5070797;28;20389;-67
2023/12/07 04:48:44;;;;;;;14.57;13.97;;;1.30;99.90;;;;;;5071178;28;20214;-68
2023/12/07 04:51:11;;;;;;;13.40;12.87;;;1.40;99.90;;;;;;5072769;28;20203;-66
2023/12/07 04:53:38;;;;;;;13.20;12.70;;;1.40;99.90;;;;;;5073051;28;20235;-68
2023/12/07 04:56:05;;;;;;;13.23;12.63;;;1.30;99.90;;;;;;5072843;28;20636;-68
2023/12/07 04:58:32;;;;;;;13.33;12.73;;;1.30;99.90;;;;;;5073074;28;20253;-68
2023/12/07 05:01:00;;;;;;;12.30;11.80;;;1.30;99.90;;;;;;5073500;28;20215;-67
2023/12/07 05:03:27;;;;;;;11.70;11.30;;;1.30;99.90;;;;;;5074555;28;20235;-67
2023/12/07 05:05:53;;;;;;;12.97;12.47;;;1.30;99.90;;;;;;5077076;28;20231;-67
2023/12/07 05:08:20;;;;;;;13.30;12.80;;;1.30;99.90;;;;;;5067265;28;20218;-67
2023/12/07 05:10:47;;;;;;;13.87;13.30;;;1.30;99.90;;;;;;5075044;28;20207;-69
2023/12/07 05:13:13;;;;;;;12.40;11.90;;;1.40;99.90;;;;;;5074928;28;20218;-69
2023/12/07 05:15:41;;;;;;;13.00;12.50;;;1.30;99.90;;;;;;5074816;28;20223;-67
2023/12/07 05:18:09;;;;;;;12.87;12.37;;;1.40;99.90;;;;;;5075133;28;20214;-68
2023/12/07 05:20:38;;;;;;;12.67;12.17;;;1.30;99.90;;;;;;5074456;28;20210;-66
2023/12/07 05:23:05;;;;;;;13.30;12.80;;;1.30;99.90;;;;;;5074415;28;20207;-67
2023/12/07 05:25:33;;;;;;;12.93;12.33;;;1.30;99.90;;;;;;5074321;28;20238;-69
2023/12/07 05:28:00;;;;;;;13.67;13.07;;;1.20;99.90;;;;;;5074428;28;20241;-68
2023/12/07 05:30:27;;;;;;;13.87;13.27;;;1.20;99.90;;;;;;5074614;28;20607;-69
2023/12/07 05:32:54;;;;;;;13.10;12.60;;;1.20;99.90;;;;;;5074148;28;20298;-67
2023/12/07 05:35:23;;;;;;;13.47;12.87;;;1.30;99.90;;;;;;5074004;28;20223;-69
2023/12/07 05:37:50;;;;;;;13.33;12.83;;;1.20;99.90;;;;;;5075852;28;20586;-67
2023/12/07 05:40:17;;;;;;;12.63;12.13;;;1.20;99.90;;;;;;5074362;28;20272;-68
2023/12/07 05:42:43;;;;;;;13.55;13.05;;;1.20;99.90;;;;;;5074163;28;20207;-68
2023/12/07 05:45:10;;;;;;;12.47;11.97;;;1.20;99.90;;;;;;5073744;28;20666;-66
2023/12/07 05:47:37;;;;;;;13.43;12.93;;;1.10;99.90;;;;;;5080899;28;20211;-68
2023/12/07 05:50:05;;;;;;;13.77;13.23;;;1.10;99.90;;;;;;5075085;28;20226;-65
2023/12/07 05:52:33;;;;;;;13.83;13.33;;;1.10;99.90;;;;;;5074231;28;20219;-65
2023/12/07 05:55:00;;;;;;;14.57;13.97;;;1.20;99.90;;;;;;5076089;28;20226;-60
2023/12/07 05:57:27;;;;;;;16.23;15.63;;;1.40;99.90;;;;;;5073946;28;20238;-59
2023/12/07 05:59:53;;;;;;;19.13;18.43;;;4.30;99.90;;;;;;5073912;28;20207;-60
2023/12/07 06:02:20;;;;;;;12.37;11.97;;;5.70;99.90;;;;;;5073592;28;20207;-67
2023/12/07 06:04:47;;;;;;;12.40;11.80;;;5.70;99.90;;;;;;5073901;28;20207;-68
2023/12/07 06:07:13;;;;;;;11.40;11.00;;;4.50;99.90;;;;;;5073537;28;20720;-68
2023/12/07 06:09:42;;;;;;;11.90;11.40;;;3.60;99.90;;;;;;5073650;28;20215;-68
2023/12/07 06:12:09;;;;;;;12.60;12.10;;;2.90;99.90;;;;;;5073521;28;20268;-69
2023/12/07 06:14:35;;;;;;;12.90;12.40;;;2.50;99.90;;;;;;5072781;28;20227;-69
2023/12/07 06:17:02;;;;;;;13.60;13.10;;;2.20;99.90;;;;;;5071919;28;20227;-69
2023/12/07 06:19:29;;;;;;;13.53;13.03;;;2.10;99.90;;;;;;5073061;28;20214;-67
2023/12/07 06:21:57;;;;;;;13.57;13.07;;;1.90;99.90;;;;;;5072978;28;20560;-69
2023/12/07 06:24:24;;;;;;;13.07;12.57;;;1.80;99.90;;;;;;5072573;28;20662;-68
2023/12/07 06:26:52;;;;;;;13.37;12.87;;;1.70;99.90;;;;;;5070293;28;20223;-69
2023/12/07 06:29:19;;;;;;;13.37;12.77;;;1.70;99.90;;;;;;5072646;28;20203;-69
2023/12/07 06:31:46;;;;;;;13.60;13.00;;;1.60;99.90;;;;;;5072924;28;20214;-68
2023/12/07 06:34:13;;;;;;;13.40;12.80;;;1.60;99.90;;;;;;5072744;28;20223;-67
2023/12/07 06:36:39;;;;;;;13.53;12.93;;;1.50;99.90;;;;;;5072557;28;20611;-69
2023/12/07 06:39:06;;;;;;;12.60;12.10;;;1.40;99.90;;;;;;5072380;28;20226;-71
2023/12/07 06:41:33;;;;;;;12.10;11.60;;;1.40;99.90;;;;;;5073234;28;20215;-67
2023/12/07 06:44:01;;;;;;;12.33;11.83;;;1.40;99.90;;;;;;5074355;28;20210;-68
2023/12/07 06:46:28;;;;;;;12.27;11.77;;;1.40;99.90;;;;;;5075299;28;20227;-69
2023/12/07 06:48:55;;;;;;;12.70;12.10;;;1.30;99.90;;;;;;5073954;28;20207;-66
2023/12/07 06:51:21;;;;;;;12.33;11.83;;;1.40;99.90;;;;;;5074924;28;20276;-68
2023/12/07 06:53:48;;;;;;;12.43;11.93;;;1.30;99.90;;;;;;5076822;28;20207;-67
2023/12/07 06:56:15;;;;;;;12.00;11.50;;;1.20;99.90;;;;;;5072822;28;20631;-67
2023/12/07 06:58:42;;;;;;;12.07;11.53;;;1.20;99.90;;;;;;5072419;28;20207;-68
2023/12/07 07:01:10;;;;;;;11.03;10.63;;;1.20;99.90;;;;;;5072176;28;20203;-68
2023/12/07 07:03:37;;;;;;;13.57;12.87;;;1.20;99.90;;;;;;5071940;28;20540;-67
2023/12/07 07:06:04;;;;;;;13.03;12.43;;;1.20;99.90;;;;;;5071680;28;20231;-68
2023/12/07 07:08:31;;;;;;;11.10;10.70;;;1.20;99.90;;;;;;5072040;28;20252;-67
2023/12/07 07:10:58;;;;;;;11.73;11.23;;;1.20;99.90;;;;;;5071984;28;20234;-69
2023/12/07 07:13:24;;;;;;;11.83;11.33;;;1.20;99.90;;;;;;5072352;28;20215;-67
2023/12/07 07:15:51;;;;;;;12.00;11.50;;;1.30;99.90;;;;;;5071921;28;20702;-70
2023/12/07 07:18:20;;;;;;;11.30;10.87;;;1.30;99.90;;;;;;5071805;28;20234;-68
2023/12/07 07:20:47;;;;;;;11.50;11.10;;;1.40;99.90;;;;;;5071778;28;20260;-68
2023/12/07 07:23:14;;;;;;;11.40;11.00;;;1.40;99.90;;;;;;5071647;28;20341;-69
2023/12/07 07:25:40;;;;;;;11.40;10.93;;;1.40;99.90;;;;;;5071750;28;20222;-68
2023/12/07 07:28:07;;;;;;;11.40;10.90;;;1.30;99.90;;;;;;5072135;28;20207;-69
2023/12/07 07:30:34;;;;;;;11.75;11.25;;;1.30;99.90;;;;;;5071422;28;20226;-68
2023/12/07 07:33:01;;;;;;;11.53;11.03;;;1.40;99.90;;;;;;5072759;28;20219;-70
2023/12/07 07:35:29;;;;;;;11.60;11.20;;;1.30;99.90;;;;;;5072136;28;20227;-68
2023/12/07 07:37:56;;;;;;;12.30;11.80;;;1.40;99.90;;;;;;5072061;28;20203;-70
2023/12/07 07:40:24;;;;;;;11.90;11.40;;;1.40;99.90;;;;;;5071796;28;20222;-68
2023/12/07 07:42:51;;;;;;;11.93;11.43;;;1.40;99.90;;;;;;5071236;28;20294;-69
2023/12/07 07:45:18;;;;;;;11.20;10.70;;;1.40;99.90;;;;;;5071166;28;20211;-68
2023/12/07 07:47:44;;;;;;;11.50;11.07;;;1.50;99.90;;;;;;5072190;28;20565;-69
2023/12/07 07:50:11;;;;;;;13.43;12.80;;;1.60;99.90;;;;;;5071641;28;20211;-70
2023/12/07 07:52:40;;;;;;;11.67;11.23;;;1.60;99.90;;;;;;5078144;28;20218;-68
2023/12/07 07:55:07;;;;;;;11.30;10.90;;;1.70;99.90;;;;;;5072751;28;20231;-69
2023/12/07 07:57:35;;;;;;;12.77;12.27;;;1.80;99.90;;;;;;5071937;28;20551;-68
2023/12/07 08:00:01;;;;;;;12.83;12.33;;;1.90;99.90;;;;;;5071149;28;20296;-68
2023/12/07 08:02:28;;;;;;;13.20;12.70;;;2.00;99.90;;;;;;5071358;28;20646;-69
2023/12/07 08:04:55;;;;;;;13.40;12.90;;;2.10;99.90;;;;;;5071613;28;20207;-70
2023/12/07 08:07:21;;;;;;;12.73;12.23;;;2.30;99.90;;;;;;5071461;28;20681;-68
2023/12/07 08:09:49;;;;;;;12.53;12.03;;;2.40;99.90;;;;;;5071319;28;20208;-68
2023/12/07 08:12:16;;;;;;;12.63;12.13;;;2.50;99.90;;;;;;5073174;28;20423;-70
2023/12/07 08:14:44;;;;;;;12.40;11.90;;;2.60;99.90;;;;;;5074962;28;20608;-67
2023/12/07 08:17:12;;;;;;;12.97;12.47;;;2.60;99.90;;;;;;5076744;28;20253;-66
2023/12/07 08:19:38;;;;;;;12.73;12.23;;;2.50;99.90;;;;;;5075533;28;20218;-67
2023/12/07 08:22:05;;;;;;;13.20;12.70;;;2.60;99.90;;;;;;5078072;28;20256;-67
2023/12/07 08:24:32;;;;;;;13.33;12.83;;;2.50;99.90;;;;;;5076158;28;20206;-68
2023/12/07 08:27:00;;;;;;;13.70;13.20;;;2.50;99.90;;;;;;5077224;28;20238;-67
2023/12/07 08:29:27;;;;;;;12.90;12.40;;;2.50;99.90;;;;;;5076147;28;20218;-70
2023/12/07 08:31:53;;;;;;;14.00;13.40;;;2.50;99.90;;;;;;5071528;28;20214;-69
2023/12/07 08:34:20;;;;;;;13.17;12.67;;;2.50;99.90;;;;;;5063198;28;20211;-68
2023/12/07 08:36:47;;;;;;;13.73;13.23;;;2.50;99.90;;;;;;5072845;28;20242;-67
2023/12/07 08:39:14;;;;;;;13.47;12.93;;;2.50;99.90;;;;;;5074783;28;20673;-69
2023/12/07 08:41:40;;;;;;;14.67;14.07;;;2.60;99.90;;;;;;5076458;28;20214;-67
2023/12/07 08:44:09;;;;;;;14.03;13.43;;;2.50;99.90;;;;;;5075715;28;20210;-68
2023/12/07 08:46:36;;;;;;;13.37;12.80;;;2.60;99.90;;;;;;5076651;28;20227;-68
2023/12/07 08:49:02;;;;;;;13.23;12.63;;;2.60;99.90;;;;;;5078599;28;20218;-69
2023/12/07 08:51:29;;;;;;;13.37;12.87;;;2.60;99.90;;;;;;5078964;28;20409;-67
2023/12/07 08:53:56;;;;;;;13.48;12.98;;;2.60;99.90;;;;;;5078263;28;20230;-68
2023/12/07 08:56:23;;;;;;;13.13;12.63;;;2.70;99.90;;;;;;5076324;28;20227;-69
2023/12/07 08:58:51;;;;;;;13.73;13.17;;;2.80;99.90;;;;;;5076061;28;20218;-66
2023/12/07 09:01:19;;;;;;;14.17;13.57;;;2.80;99.90;;;;;;5075800;28;20222;-67
2023/12/07 09:03:45;;;;;;;13.63;13.03;;;2.90;99.90;;;;;;5075294;28;20203;-66
2023/12/07 09:06:12;;;;;;;13.87;13.27;;;3.10;99.90;;;;;;5074891;28;20227;-69
2023/12/07 09:08:39;;;;;;;12.57;12.07;;;3.20;99.90;;;;;;5075352;28;20214;-68
2023/12/07 09:11:06;;;;;;;12.07;11.67;;;3.30;99.90;;;;;;5074815;28;20211;-66
2023/12/07 09:13:32;;;;;;;12.70;12.20;;;3.50;99.90;;;;;;5074806;28;20207;-70
2023/12/07 09:15:59;;;;;;;12.20;11.70;;;3.60;99.90;;;;;;5076903;28;20230;-68
2023/12/07 09:18:27;;;;;;;11.80;11.40;;;3.70;99.90;;;;;;5075832;28;20613;-67
2023/12/07 09:20:54;;;;;;;12.30;11.80;;;3.80;99.90;;;;;;5074474;28;20215;-65
2023/12/07 09:23:20;;;;;;;11.80;11.30;;;3.90;99.90;;;;;;5074495;28;20203;-68
2023/12/07 09:25:47;;;;;;;11.80;11.30;;;4.00;99.90;;;;;;5074669;28;20717;-68
2023/12/07 09:28:14;;;;;;;11.07;10.67;;;4.10;99.90;;;;;;5075266;28;20218;-68
2023/12/07 09:30:40;;;;;;;11.50;11.10;;;4.10;99.90;;;;;;5075994;28;20211;-67
2023/12/07 09:33:07;;;;;;;11.40;11.00;;;4.20;99.90;;;;;;5075758;28;20214;-67
2023/12/07 09:35:35;;;;;;;11.43;11.03;;;4.30;99.90;;;;;;5075714;28;20231;-65
2023/12/07 09:38:02;;;;;;;11.53;11.03;;;4.40;99.90;;;;;;5075547;28;20222;-68
2023/12/07 09:40:30;;;;;;;12.03;11.53;;;4.60;99.90;;;;;;5075292;28;20580;-68
2023/12/07 09:42:57;;;;;;;11.60;11.20;;;4.70;99.90;;;;;;5075508;28;20211;-66
2023/12/07 09:45:24;;;;;;;11.17;10.77;;;4.90;99.90;;;;;;5074735;28;20199;-67
2023/12/07 09:47:52;;;;;;;11.10;10.70;;;5.10;99.90;;;;;;5075324;28;20211;-68
2023/12/07 09:50:21;;;;;;;12.37;11.87;;;5.10;99.90;;;;;;5074031;28;20207;-65
2023/12/07 09:52:50;;;;;;;12.97;12.47;;;5.00;99.90;;;;;;5084888;28;20253;-69
2023/12/07 09:55:17;;;;;;;14.13;13.53;;;4.70;99.90;;;;;;5089590;28;20231;-69
2023/12/07 09:57:44;;;;;;;15.27;14.57;;;3.90;99.90;;;;;;5088658;28;20215;-67
2023/12/07 10:00:14;;;;;;;15.27;14.57;;;3.70;99.90;;;;;;5088097;28;20209;-65
2023/12/07 10:02:42;;;;;;;15.63;14.93;;;3.50;99.90;;;;;;5089957;28;20204;-66
2023/12/07 10:05:10;;;;;;;31.57;23.93;;;3.10;99.90;;;;;;5081688;28;20202;-64
2023/12/07 10:07:40;;;;;;;19.67;18.50;;;2.70;99.90;;;;;;5079554;28;20215;-66
2023/12/07 10:10:11;;;;;;;18.77;17.87;;;2.50;99.90;;;;;;5075784;28;20229;-68
2023/12/07 10:12:48;;;;;;;22.83;21.07;;;2.30;99.90;;;;;;5075148;28;20211;-68
2023/12/07 10:15:17;;;;;;;18.97;18.17;;;2.30;99.90;;;;;;5076884;28;20246;-66
2023/12/07 10:17:48;;;;;;;19.83;18.93;;;2.20;99.90;;;;;;5074889;28;20700;-67
2023/12/07 10:20:17;;;;;;;17.13;16.33;;;2.20;99.90;;;;;;5073905;28;20211;-65
2023/12/07 10:22:44;;;;;;;16.77;16.07;;;2.40;99.90;;;;;;5074300;28;20657;-65
2023/12/07 10:25:13;;;;;;;19.83;18.53;;;2.60;99.90;;;;;;5074866;28;20565;-67
2023/12/07 10:27:42;;;;;;;17.77;16.97;;;2.60;99.90;;;;;;5074125;28;20204;-65
2023/12/07 10:30:11;;;;;;;21.37;20.17;;;2.60;99.90;;;;;;5072059;28;20238;-68
2023/12/07 10:32:39;;;;;;;16.37;15.57;;;2.70;99.90;;;;;;5074098;28;20234;-69
2023/12/07 10:35:08;;;;;;;18.70;17.30;;;2.70;99.90;;;;;;5073798;28;20239;-67
2023/12/07 10:37:35;;;;;;;17.60;16.40;;;2.60;99.90;;;;;;5074043;28;20375;-69
2023/12/07 10:40:05;;;;;;;18.83;17.80;;;2.60;99.90;;;;;;5073565;28;20586;-68
2023/12/07 10:42:36;;;;;;;18.13;17.30;;;2.50;99.90;;;;;;5073602;28;20585;-68
2023/12/07 10:45:05;;;;;;;17.47;16.67;;;2.50;99.90;;;;;;5074193;28;20230;-69
2023/12/07 10:47:36;;;;;;;26.50;24.80;;;2.60;99.90;;;;;;5074146;28;20223;-69
2023/12/07 10:50:06;;;;;;;22.33;20.83;;;2.70;99.90;;;;;;5074193;28;20203;-69
2023/12/07 10:52:35;;;;;;;18.13;17.23;;;2.80;99.90;;;;;;5073660;28;20215;-68
2023/12/07 10:55:07;;;;;;;18.10;17.10;;;2.80;99.90;;;;;;5073277;28;20564;-68
2023/12/07 10:57:37;;;;;;;17.90;17.00;;;2.70;99.90;;;;;;5074973;28;20230;-68
2023/12/07 11:00:04;;;;;;;18.40;16.60;;;2.60;99.90;;;;;;5081784;28;20249;-69
2023/12/07 11:02:33;;;;;;;16.43;15.63;;;2.60;99.90;;;;;;5075360;28;20209;-68
2023/12/07 11:05:01;;;;;;;19.77;18.50;;;2.50;99.90;;;;;;5076518;28;20199;-68
2023/12/07 11:07:38;;;;;;;19.30;18.07;;;2.40;99.90;;;;;;5074998;28;20467;-67
2023/12/07 11:10:21;;;;;;;18.50;17.30;;;2.40;99.90;;;;;;5075230;28;20202;-68
2023/12/07 11:12:55;;;;;;;18.70;17.57;;;2.30;99.90;;;;;;5076016;28;20222;-70
2023/12/07 11:15:22;;;;;;;18.17;17.23;;;2.20;99.90;;;;;;5067708;28;20222;-69
2023/12/07 11:17:52;;;;;;;17.03;16.13;;;2.10;99.90;;;;;;5074995;28;20233;-68
2023/12/07 11:20:20;;;;;;;23.23;20.83;;;2.20;99.90;;;;;;5074330;28;20590;-67
2023/12/07 11:22:48;;;;;;;19.27;18.37;;;2.00;99.90;;;;;;5074105;28;20207;-69
2023/12/07 11:25:16;;;;;;;21.70;19.87;;;2.00;99.90;;;;;;5073256;28;20222;-67
2023/12/07 11:27:47;;;;;;;19.37;18.27;;;2.10;99.90;;;;;;5074296;28;20203;-69
2023/12/07 11:30:17;;;;;;;19.67;18.30;;;2.10;99.90;;;;;;5073111;28;20214;-67
2023/12/07 11:32:45;;;;;;;18.17;17.37;;;2.20;99.90;;;;;;5072867;28;20211;-67
2023/12/07 11:35:15;;;;;;;18.47;17.40;;;2.20;99.90;;;;;;5073032;28;20256;-67
2023/12/07 11:38:02;;;;;;;18.30;16.80;;;2.40;99.90;;;;;;5072985;28;20215;-68
2023/12/07 11:40:30;;;;;;;19.63;18.17;;;2.40;99.90;;;;;;5065763;28;20239;-67
2023/12/07 11:42:57;;;;;;;17.70;16.90;;;2.40;99.90;;;;;;5072448;28;20581;-67
2023/12/07 11:45:42;;;;;;;17.93;16.87;;;2.30;99.90;;;;;;5072875;28;20218;-70
2023/12/07 11:48:10;;;;;;;18.03;17.13;;;2.40;99.90;;;;;;5072974;28;20246;-69
2023/12/07 11:50:36;;;;;;;19.73;18.30;;;2.50;99.90;;;;;;5072780;28;20218;-68
2023/12/07 11:53:03;;;;;;;19.47;18.37;;;2.50;99.90;;;;;;5072533;28;20665;-70
2023/12/07 11:55:32;;;;;;;23.90;21.70;;;2.50;99.90;;;;;;5072210;28;20235;-69
2023/12/07 11:57:59;;;;;;;19.90;18.70;;;2.30;99.90;;;;;;5072780;28;20211;-69
2023/12/07 12:00:27;;;;;;;16.03;15.33;;;2.20;99.90;;;;;;5072646;28;20211;-69
2023/12/07 12:02:57;;;;;;;17.73;16.93;;;2.20;99.90;;;;;;5074997;28;20210;-69
2023/12/07 12:05:24;;;;;;;19.97;18.10;;;2.30;99.90;;;;;;5086211;28;20211;-69
2023/12/07 12:07:51;;;;;;;18.63;17.47;;;2.30;99.90;;;;;;5083814;28;20203;-68
2023/12/07 12:10:19;;;;;;;17.60;16.70;;;2.30;99.90;;;;;;5074031;28;20561;-68
2023/12/07 12:12:46;;;;;;;26.13;24.03;;;2.30;99.90;;;;;;5072986;28;20610;-70
2023/12/07 12:15:12;;;;;;;17.13;16.43;;;2.20;99.90;;;;;;5073143;28;20215;-67
2023/12/07 12:17:39;;;;;;;15.97;15.20;;;2.20;99.90;;;;;;5073611;28;20234;-67
2023/12/07 12:20:08;;;;;;;23.60;21.57;;;2.20;99.90;;;;;;5076605;28;20677;-68
2023/12/07 12:22:37;;;;;;;19.63;18.40;;;2.20;99.90;;;;;;5076186;28;20203;-68
2023/12/07 12:25:05;;;;;;;19.47;18.40;;;2.20;99.90;;;;;;5077793;28;20216;-68
2023/12/07 12:27:32;;;;;;;22.30;20.80;;;2.20;99.90;;;;;;5079981;28;20230;-67
2023/12/07 12:30:00;;;;;;;18.90;17.73;;;2.20;99.90;;;;;;5080898;28;20225;-69
2023/12/07 12:32:26;;;;;;;18.73;17.83;;;2.20;99.90;;;;;;5077587;28;20199;-68
2023/12/07 12:34:53;;;;;;;19.83;18.43;;;2.00;99.90;;;;;;5073482;28;20218;-68
2023/12/07 12:37:21;;;;;;;19.53;18.70;;;2.00;99.90;;;;;;5072836;28;20234;-67